sensor_id;sensor_type;location;lat;lon;timestamp;temperature;humidity
7290;DHT22;63176;52.678;13.250;2023-11-19T00:00:29;5.60;99.90
7290;DHT22;63176;52.678;13.250;2023-11-19T00:02:54;5.60;99.90
7290;DHT22;63176;52.678;13.250;2023-11-19T00:05:20;5.60;99.90
7290;DHT22;63176;52.678;13.250;2023-11-19T00:07:46;5.70;99.90
7290;DHT22;63176;52.678;13.250;2023-11-19T00:10:13;5.60;99.90
7290;DHT22;63176;52.678;13.250;2023-11-19T00:12:40;5.70;99.90
7290;DHT22;63176;52.678;13.250;2023-11-19T00:15:06;5.60;99.90
7290;DHT22;63176;52.678;13.250;2023-11-19T00:17:37;5.60;99.90
7290;DHT22;63176;52.678;13.250;2023-11-19T00:20:04;5.60;99.90
7290;DHT22;63176;52.678;13.250;2023-11-19T00:22:31;5.60;99.90
7290;DHT22;63176;52.678;13.250;2023-11-19T00:24:57;5.60;99.90
7290;DHT22;63176;52.678;13.250;2023-11-19T00:27:22;5.60;99.90
7290;DHT22;63176;52.678;13.250;2023-11-19T00:29:48;5.60;99.90
7290;DHT22;63176;52.678;13.250;2023-11-19T00:32:14;5.60;99.90
7290;DHT22;63176;52.678;13.250;2023-11-19T00:34:41;5.60;99.90
7290;DHT22;63176;52.678;13.250;2023-11-19T00:37:08;5.60;99.90
7290;DHT22;63176;52.678;13.250;2023-11-19T00:39:34;5.60;99.90
7290;DHT22;63176;52.678;13.250;2023-11-19T00:42:00;5.60;99.90
7290;DHT22;63176;52.678;13.250;2023-11-19T00:44:25;5.60;99.90
7290;DHT22;63176;52.678;13.250;2023-11-19T00:46:51;5.60;99.90
7290;DHT22;63176;52.678;13.250;2023-11-19T00:49:16;5.60;99.90
7290;DHT22;63176;52.678;13.250;2023-11-19T00:51:42;5.60;99.90
7290;DHT22;63176;52.678;13.250;2023-11-19T00:54:08;5.60;99.90
7290;DHT22;63176;52.678;13.250;2023-11-19T00:56:33;5.70;99.90
7290;DHT22;63176;52.678;13.250;2023-11-19T00:58:59;5.70;99.90
7290;DHT22;63176;52.678;13.250;2023-11-19T01:01:25;5.70;99.90
7290;DHT22;63176;52.678;13.250;2023-11-19T01:03:51;5.70;99.90
7290;DHT22;63176;52.678;13.250;2023-11-19T01:06:30;5.70;99.90
7290;DHT22;63176;52.678;13.250;2023-11-19T01:08:56;5.70;99.90
7290;DHT22;63176;52.678;13.250;2023-11-19T01:11:24;5.70;99.90
7290;DHT22;63176;52.678;13.250;2023-11-19T01:13:51;5.70;99.90
7290;DHT22;63176;52.678;13.250;2023-11-19T01:16:17;5.70;99.90
7290;DHT22;63176;52.678;13.250;2023-11-19T01:18:44;5.70;99.90
7290;DHT22;63176;52.678;13.250;2023-11-19T01:21:09;5.70;99.90
7290;DHT22;63176;52.678;13.250;2023-11-19T01:23:35;5.70;99.90
7290;DHT22;63176;52.678;13.250;2023-11-19T01:26:02;5.70;99.90
7290;DHT22;63176;52.678;13.250;2023-11-19T01:28:28;5.70;99.90
7290;DHT22;63176;52.678;13.250;2023-11-19T01:30:54;5.70;99.90
7290;DHT22;63176;52.678;13.250;2023-11-19T01:33:19;5.70;99.90
7290;DHT22;63176;52.678;13.250;2023-11-19T01:35:46;5.70;99.90
7290;DHT22;63176;52.678;13.250;2023-11-19T01:38:12;5.80;99.90
7290;DHT22;63176;52.678;13.250;2023-11-19T01:40:38;5.70;99.90
7290;DHT22;63176;52.678;13.250;2023-11-19T01:43:04;5.80;99.90
7290;DHT22;63176;52.678;13.250;2023-11-19T01:45:30;5.80;99.90
7290;DHT22;63176;52.678;13.250;2023-11-19T01:47:57;5.80;99.90
7290;DHT22;63176;52.678;13.250;2023-11-19T01:50:23;5.80;99.90
7290;DHT22;63176;52.678;13.250;2023-11-19T01:52:54;5.90;99.90
7290;DHT22;63176;52.678;13.250;2023-11-19T01:55:21;5.90;99.90
7290;DHT22;63176;52.678;13.250;2023-11-19T01:57:48;5.90;99.90
7290;DHT22;63176;52.678;13.250;2023-11-19T02:00:15;5.90;99.90
7290;DHT22;63176;52.678;13.250;2023-11-19T02:02:42;6.00;99.90
7290;DHT22;63176;52.678;13.250;2023-11-19T02:05:09;6.00;99.90
7290;DHT22;63176;52.678;13.250;2023-11-19T02:07:35;6.00;99.90
7290;DHT22;63176;52.678;13.250;2023-11-19T02:10:01;6.00;99.90
7290;DHT22;63176;52.678;13.250;2023-11-19T02:12:28;5.90;99.90
7290;DHT22;63176;52.678;13.250;2023-11-19T02:14:54;6.00;99.90
7290;DHT22;63176;52.678;13.250;2023-11-19T02:17:27;6.00;99.90
7290;DHT22;63176;52.678;13.250;2023-11-19T02:19:53;6.00;99.90
7290;DHT22;63176;52.678;13.250;2023-11-19T02:22:19;6.00;99.90
7290;DHT22;63176;52.678;13.250;2023-11-19T02:24:46;6.00;99.90
7290;DHT22;63176;52.678;13.250;2023-11-19T02:27:21;6.00;99.90
7290;DHT22;63176;52.678;13.250;2023-11-19T02:29:50;6.00;99.90
7290;DHT22;63176;52.678;13.250;2023-11-19T02:32:17;6.00;99.90
7290;DHT22;63176;52.678;13.250;2023-11-19T02:34:42;6.00;99.90
7290;DHT22;63176;52.678;13.250;2023-11-19T02:37:08;6.00;99.90
7290;DHT22;63176;52.678;13.250;2023-11-19T02:39:35;6.00;99.90
7290;DHT22;63176;52.678;13.250;2023-11-19T02:42:02;6.10;99.90
7290;DHT22;63176;52.678;13.250;2023-11-19T02:44:28;6.10;99.90
7290;DHT22;63176;52.678;13.250;2023-11-19T02:46:55;6.10;99.90
7290;DHT22;63176;52.678;13.250;2023-11-19T02:49:24;6.10;99.90
7290;DHT22;63176;52.678;13.250;2023-11-19T02:51:50;6.10;99.90
7290;DHT22;63176;52.678;13.250;2023-11-19T02:54:16;6.10;99.90
7290;DHT22;63176;52.678;13.250;2023-11-19T02:56:44;6.10;99.90
7290;DHT22;63176;52.678;13.250;2023-11-19T02:59:13;6.10;99.90
7290;DHT22;63176;52.678;13.250;2023-11-19T03:01:52;6.10;99.90
7290;DHT22;63176;52.678;13.250;2023-11-19T03:04:19;6.10;99.90
7290;DHT22;63176;52.678;13.250;2023-11-19T03:06:46;6.10;99.90
7290;DHT22;63176;52.678;13.250;2023-11-19T03:09:12;6.10;99.90
7290;DHT22;63176;52.678;13.250;2023-11-19T03:11:38;6.10;99.90
7290;DHT22;63176;52.678;13.250;2023-11-19T03:14:04;6.10;99.90
7290;DHT22;63176;52.678;13.250;2023-11-19T03:16:30;6.10;99.90
7290;DHT22;63176;52.678;13.250;2023-11-19T03:18:55;6.20;99.90
7290;DHT22;63176;52.678;13.250;2023-11-19T03:21:31;6.20;99.90
7290;DHT22;63176;52.678;13.250;2023-11-19T03:24:00;6.20;99.90
7290;DHT22;63176;52.678;13.250;2023-11-19T03:26:28;6.20;99.90
7290;DHT22;63176;52.678;13.250;2023-11-19T03:28:54;6.10;99.90
7290;DHT22;63176;52.678;13.250;2023-11-19T03:31:21;6.10;99.90
7290;DHT22;63176;52.678;13.250;2023-11-19T03:33:46;6.00;99.90
7290;DHT22;63176;52.678;13.250;2023-11-19T03:36:12;6.00;99.90
7290;DHT22;63176;52.678;13.250;2023-11-19T03:38:38;6.00;99.90
7290;DHT22;63176;52.678;13.250;2023-11-19T03:41:13;6.00;99.90
7290;DHT22;63176;52.678;13.250;2023-11-19T03:43:40;6.00;99.90
7290;DHT22;63176;52.678;13.250;2023-11-19T03:46:35;5.90;99.90
7290;DHT22;63176;52.678;13.250;2023-11-19T03:49:01;5.90;99.90
7290;DHT22;63176;52.678;13.250;2023-11-19T03:51:27;5.90;99.90
7290;DHT22;63176;52.678;13.250;2023-11-19T03:53:53;5.90;99.90
7290;DHT22;63176;52.678;13.250;2023-11-19T03:56:19;5.90;99.90
7290;DHT22;63176;52.678;13.250;2023-11-19T03:58:46;5.80;99.90
7290;DHT22;63176;52.678;13.250;2023-11-19T04:01:12;5.80;99.90
7290;DHT22;63176;52.678;13.250;2023-11-19T04:03:41;5.80;99.90
7290;DHT22;63176;52.678;13.250;2023-11-19T04:06:07;5.80;99.90
7290;DHT22;63176;52.678;13.250;2023-11-19T04:08:32;5.80;99.90
7290;DHT22;63176;52.678;13.250;2023-11-19T04:10:58;5.80;99.90
7290;DHT22;63176;52.678;13.250;2023-11-19T04:13:23;5.80;99.90
7290;DHT22;63176;52.678;13.250;2023-11-19T04:15:50;5.80;99.90
7290;DHT22;63176;52.678;13.250;2023-11-19T04:18:16;5.70;99.90
7290;DHT22;63176;52.678;13.250;2023-11-19T04:20:41;5.70;99.90
7290;DHT22;63176;52.678;13.250;2023-11-19T04:23:08;5.70;99.90
7290;DHT22;63176;52.678;13.250;2023-11-19T04:25:35;5.60;99.90
7290;DHT22;63176;52.678;13.250;2023-11-19T04:28:00;5.70;99.90
7290;DHT22;63176;52.678;13.250;2023-11-19T04:30:27;5.70;99.90
7290;DHT22;63176;52.678;13.250;2023-11-19T04:32:53;5.70;99.90
7290;DHT22;63176;52.678;13.250;2023-11-19T04:35:19;5.60;99.90
7290;DHT22;63176;52.678;13.250;2023-11-19T04:37:45;5.60;99.90
7290;DHT22;63176;52.678;13.250;2023-11-19T04:40:11;5.70;99.90
7290;DHT22;63176;52.678;13.250;2023-11-19T04:42:38;5.70;99.90
7290;DHT22;63176;52.678;13.250;2023-11-19T04:45:06;5.70;99.90
7290;DHT22;63176;52.678;13.250;2023-11-19T04:47:33;5.70;99.90
7290;DHT22;63176;52.678;13.250;2023-11-19T04:49:59;5.70;99.90
7290;DHT22;63176;52.678;13.250;2023-11-19T04:52:25;5.70;99.90
7290;DHT22;63176;52.678;13.250;2023-11-19T04:54:51;5.70;99.90
7290;DHT22;63176;52.678;13.250;2023-11-19T04:57:17;5.70;99.90
7290;DHT22;63176;52.678;13.250;2023-11-19T04:59:42;5.70;99.90
7290;DHT22;63176;52.678;13.250;2023-11-19T05:02:09;5.70;99.90
7290;DHT22;63176;52.678;13.250;2023-11-19T05:04:35;5.70;99.90
7290;DHT22;63176;52.678;13.250;2023-11-19T05:07:00;5.60;99.90
7290;DHT22;63176;52.678;13.250;2023-11-19T05:09:26;5.70;99.90
7290;DHT22;63176;52.678;13.250;2023-11-19T05:11:52;5.60;99.90
7290;DHT22;63176;52.678;13.250;2023-11-19T05:14:17;5.60;99.90
7290;DHT22;63176;52.678;13.250;2023-11-19T05:16:47;5.60;99.90
7290;DHT22;63176;52.678;13.250;2023-11-19T05:19:13;5.60;99.90
7290;DHT22;63176;52.678;13.250;2023-11-19T05:21:44;5.60;99.90
7290;DHT22;63176;52.678;13.250;2023-11-19T05:24:10;5.60;99.90
7290;DHT22;63176;52.678;13.250;2023-11-19T05:26:37;5.70;99.90
7290;DHT22;63176;52.678;13.250;2023-11-19T05:29:03;5.70;99.90
7290;DHT22;63176;52.678;13.250;2023-11-19T05:31:30;5.70;99.90
7290;DHT22;63176;52.678;13.250;2023-11-19T05:33:55;5.70;99.90
7290;DHT22;63176;52.678;13.250;2023-11-19T05:36:21;5.70;99.90
7290;DHT22;63176;52.678;13.250;2023-11-19T05:38:47;5.70;99.90
7290;DHT22;63176;52.678;13.250;2023-11-19T05:41:13;5.80;99.90
7290;DHT22;63176;52.678;13.250;2023-11-19T05:43:39;5.80;99.90
7290;DHT22;63176;52.678;13.250;2023-11-19T05:46:06;5.80;99.90
7290;DHT22;63176;52.678;13.250;2023-11-19T05:48:32;5.80;99.90
7290;DHT22;63176;52.678;13.250;2023-11-19T05:50:58;5.80;99.90
7290;DHT22;63176;52.678;13.250;2023-11-19T05:53:24;5.80;99.90
7290;DHT22;63176;52.678;13.250;2023-11-19T05:55:50;5.70;99.90
7290;DHT22;63176;52.678;13.250;2023-11-19T05:58:27;5.80;99.90
7290;DHT22;63176;52.678;13.250;2023-11-19T06:00:58;5.80;99.90
7290;DHT22;63176;52.678;13.250;2023-11-19T06:03:26;5.80;99.90
7290;DHT22;63176;52.678;13.250;2023-11-19T06:05:52;5.80;99.90
7290;DHT22;63176;52.678;13.250;2023-11-19T06:08:19;5.80;99.90
7290;DHT22;63176;52.678;13.250;2023-11-19T06:10:46;5.80;99.90
7290;DHT22;63176;52.678;13.250;2023-11-19T06:13:12;5.80;99.90
7290;DHT22;63176;52.678;13.250;2023-11-19T06:15:41;5.90;99.90
7290;DHT22;63176;52.678;13.250;2023-11-19T06:18:07;5.90;99.90
7290;DHT22;63176;52.678;13.250;2023-11-19T06:20:33;5.90;99.90
7290;DHT22;63176;52.678;13.250;2023-11-19T06:23:00;6.00;99.90
7290;DHT22;63176;52.678;13.250;2023-11-19T06:25:26;6.00;99.90
7290;DHT22;63176;52.678;13.250;2023-11-19T06:27:52;6.00;99.90
7290;DHT22;63176;52.678;13.250;2023-11-19T06:30:18;6.00;99.90
7290;DHT22;63176;52.678;13.250;2023-11-19T06:32:44;6.00;99.90
7290;DHT22;63176;52.678;13.250;2023-11-19T06:35:10;6.00;99.90
7290;DHT22;63176;52.678;13.250;2023-11-19T06:37:38;6.00;99.90
7290;DHT22;63176;52.678;13.250;2023-11-19T06:40:04;6.00;99.90
7290;DHT22;63176;52.678;13.250;2023-11-19T06:42:30;6.00;99.90
7290;DHT22;63176;52.678;13.250;2023-11-19T06:44:56;6.00;1.00
7290;DHT22;63176;52.678;13.250;2023-11-19T06:47:26;6.00;1.00
7290;DHT22;63176;52.678;13.250;2023-11-19T06:49:53;6.10;1.00
7290;DHT22;63176;52.678;13.250;2023-11-19T06:52:19;6.10;1.00
7290;DHT22;63176;52.678;13.250;2023-11-19T06:54:45;6.10;1.00
7290;DHT22;63176;52.678;13.250;2023-11-19T06:57:13;6.10;1.00
7290;DHT22;63176;52.678;13.250;2023-11-19T06:59:39;6.10;1.00
7290;DHT22;63176;52.678;13.250;2023-11-19T07:02:05;6.10;1.00
7290;DHT22;63176;52.678;13.250;2023-11-19T07:04:31;6.10;1.00
7290;DHT22;63176;52.678;13.250;2023-11-19T07:06:59;6.10;1.00
7290;DHT22;63176;52.678;13.250;2023-11-19T07:09:26;6.10;1.00
7290;DHT22;63176;52.678;13.250;2023-11-19T07:11:52;6.10;1.00
7290;DHT22;63176;52.678;13.250;2023-11-19T07:14:18;6.10;1.00
7290;DHT22;63176;52.678;13.250;2023-11-19T07:16:45;6.10;1.00
7290;DHT22;63176;52.678;13.250;2023-11-19T07:19:11;6.20;1.00
7290;DHT22;63176;52.678;13.250;2023-11-19T07:21:41;6.20;1.00
7290;DHT22;63176;52.678;13.250;2023-11-19T07:24:10;6.20;1.00
7290;DHT22;63176;52.678;13.250;2023-11-19T07:26:36;6.20;1.00
7290;DHT22;63176;52.678;13.250;2023-11-19T07:29:03;6.20;1.00
7290;DHT22;63176;52.678;13.250;2023-11-19T07:31:28;6.30;1.00
7290;DHT22;63176;52.678;13.250;2023-11-19T07:33:54;6.30;1.00
7290;DHT22;63176;52.678;13.250;2023-11-19T07:36:20;6.30;1.00
7290;DHT22;63176;52.678;13.250;2023-11-19T07:38:46;6.30;1.00
7290;DHT22;63176;52.678;13.250;2023-11-19T07:41:13;6.30;1.00
7290;DHT22;63176;52.678;13.250;2023-11-19T07:43:48;6.30;1.00
7290;DHT22;63176;52.678;13.250;2023-11-19T07:46:15;6.40;1.00
7290;DHT22;63176;52.678;13.250;2023-11-19T07:48:41;6.40;1.00
7290;DHT22;63176;52.678;13.250;2023-11-19T07:51:08;6.40;1.00
7290;DHT22;63176;52.678;13.250;2023-11-19T07:53:33;6.40;1.00
7290;DHT22;63176;52.678;13.250;2023-11-19T07:56:00;6.40;1.00
7290;DHT22;63176;52.678;13.250;2023-11-19T07:58:25;6.50;1.00
7290;DHT22;63176;52.678;13.250;2023-11-19T08:00:51;6.50;1.00
7290;DHT22;63176;52.678;13.250;2023-11-19T08:03:17;6.50;1.00
7290;DHT22;63176;52.678;13.250;2023-11-19T08:05:45;6.60;1.00
7290;DHT22;63176;52.678;13.250;2023-11-19T08:08:11;6.50;1.00
7290;DHT22;63176;52.678;13.250;2023-11-19T08:10:37;6.50;1.00
7290;DHT22;63176;52.678;13.250;2023-11-19T08:13:03;6.50;1.00
7290;DHT22;63176;52.678;13.250;2023-11-19T08:15:29;6.60;1.00
7290;DHT22;63176;52.678;13.250;2023-11-19T08:17:54;6.60;1.00
7290;DHT22;63176;52.678;13.250;2023-11-19T08:20:20;6.60;1.00
7290;DHT22;63176;52.678;13.250;2023-11-19T08:22:46;6.70;1.00
7290;DHT22;63176;52.678;13.250;2023-11-19T08:25:11;6.70;1.00
7290;DHT22;63176;52.678;13.250;2023-11-19T08:27:37;6.70;1.00
7290;DHT22;63176;52.678;13.250;2023-11-19T08:30:04;6.70;1.00
7290;DHT22;63176;52.678;13.250;2023-11-19T08:32:31;6.70;1.00
7290;DHT22;63176;52.678;13.250;2023-11-19T08:34:57;6.70;1.00
7290;DHT22;63176;52.678;13.250;2023-11-19T08:37:22;6.80;1.00
7290;DHT22;63176;52.678;13.250;2023-11-19T08:39:49;6.80;1.00
7290;DHT22;63176;52.678;13.250;2023-11-19T08:42:14;6.90;1.00
7290;DHT22;63176;52.678;13.250;2023-11-19T08:44:41;6.90;1.00
7290;DHT22;63176;52.678;13.250;2023-11-19T08:47:12;6.90;1.00
7290;DHT22;63176;52.678;13.250;2023-11-19T08:49:39;7.00;1.00
7290;DHT22;63176;52.678;13.250;2023-11-19T08:52:05;7.20;1.00
7290;DHT22;63176;52.678;13.250;2023-11-19T08:54:33;7.20;1.00
7290;DHT22;63176;52.678;13.250;2023-11-19T08:56:58;7.30;1.00
7290;DHT22;63176;52.678;13.250;2023-11-19T08:59:25;7.30;1.00
7290;DHT22;63176;52.678;13.250;2023-11-19T09:01:50;7.40;1.00
7290;DHT22;63176;52.678;13.250;2023-11-19T09:04:16;7.40;1.00
7290;DHT22;63176;52.678;13.250;2023-11-19T09:06:42;7.40;1.00
7290;DHT22;63176;52.678;13.250;2023-11-19T09:09:08;7.40;1.00
7290;DHT22;63176;52.678;13.250;2023-11-19T09:11:35;7.40;1.00
7290;DHT22;63176;52.678;13.250;2023-11-19T09:14:02;7.40;1.00
7290;DHT22;63176;52.678;13.250;2023-11-19T09:16:27;7.40;1.00
7290;DHT22;63176;52.678;13.250;2023-11-19T09:18:53;7.50;1.00
7290;DHT22;63176;52.678;13.250;2023-11-19T09:21:19;7.50;1.00
7290;DHT22;63176;52.678;13.250;2023-11-19T09:23:45;7.60;1.00
7290;DHT22;63176;52.678;13.250;2023-11-19T09:26:13;7.60;1.00
7290;DHT22;63176;52.678;13.250;2023-11-19T09:28:39;7.70;1.00
7290;DHT22;63176;52.678;13.250;2023-11-19T09:31:16;7.70;1.00
7290;DHT22;63176;52.678;13.250;2023-11-19T09:33:43;7.80;1.00
7290;DHT22;63176;52.678;13.250;2023-11-19T09:36:09;7.80;1.00
7290;DHT22;63176;52.678;13.250;2023-11-19T09:38:36;7.90;1.00
7290;DHT22;63176;52.678;13.250;2023-11-19T09:41:09;8.00;1.00
7290;DHT22;63176;52.678;13.250;2023-11-19T09:43:39;8.10;1.00
7290;DHT22;63176;52.678;13.250;2023-11-19T09:46:07;8.20;1.00
7290;DHT22;63176;52.678;13.250;2023-11-19T09:48:36;8.30;1.00
7290;DHT22;63176;52.678;13.250;2023-11-19T09:51:10;8.40;1.00
7290;DHT22;63176;52.678;13.250;2023-11-19T09:53:36;8.40;1.00
7290;DHT22;63176;52.678;13.250;2023-11-19T09:56:03;8.50;1.00
7290;DHT22;63176;52.678;13.250;2023-11-19T09:58:30;8.50;1.00
7290;DHT22;63176;52.678;13.250;2023-11-19T10:00:57;8.60;1.00
7290;DHT22;63176;52.678;13.250;2023-11-19T10:03:25;8.60;1.00
7290;DHT22;63176;52.678;13.250;2023-11-19T10:05:53;8.70;1.00
7290;DHT22;63176;52.678;13.250;2023-11-19T10:08:20;8.80;1.00
7290;DHT22;63176;52.678;13.250;2023-11-19T10:10:46;8.90;1.00
7290;DHT22;63176;52.678;13.250;2023-11-19T10:13:13;9.00;1.00
7290;DHT22;63176;52.678;13.250;2023-11-19T10:15:40;9.10;1.00
7290;DHT22;63176;52.678;13.250;2023-11-19T10:18:06;9.10;1.00
7290;DHT22;63176;52.678;13.250;2023-11-19T10:20:36;9.20;1.00
7290;DHT22;63176;52.678;13.250;2023-11-19T10:23:02;9.20;1.00
7290;DHT22;63176;52.678;13.250;2023-11-19T10:25:29;9.30;1.00
7290;DHT22;63176;52.678;13.250;2023-11-19T10:27:55;9.40;1.00
7290;DHT22;63176;52.678;13.250;2023-11-19T10:30:29;9.40;1.00
7290;DHT22;63176;52.678;13.250;2023-11-19T10:35:32;9.50;1.00
7290;DHT22;63176;52.678;13.250;2023-11-19T10:38:14;9.60;1.00
7290;DHT22;63176;52.678;13.250;2023-11-19T10:40:41;9.70;1.00
7290;DHT22;63176;52.678;13.250;2023-11-19T10:43:07;9.70;1.00
7290;DHT22;63176;52.678;13.250;2023-11-19T10:45:36;9.80;1.00
7290;DHT22;63176;52.678;13.250;2023-11-19T10:48:03;9.80;1.00
7290;DHT22;63176;52.678;13.250;2023-11-19T10:50:33;9.80;1.00
7290;DHT22;63176;52.678;13.250;2023-11-19T10:52:59;9.80;1.00
7290;DHT22;63176;52.678;13.250;2023-11-19T10:55:30;9.90;1.00
7290;DHT22;63176;52.678;13.250;2023-11-19T10:58:03;10.00;1.00
7290;DHT22;63176;52.678;13.250;2023-11-19T11:00:45;10.10;1.00
7290;DHT22;63176;52.678;13.250;2023-11-19T11:03:22;10.20;1.00
7290;DHT22;63176;52.678;13.250;2023-11-19T11:05:51;10.30;1.00
7290;DHT22;63176;52.678;13.250;2023-11-19T11:08:18;10.40;1.00
7290;DHT22;63176;52.678;13.250;2023-11-19T11:10:53;10.50;1.00
7290;DHT22;63176;52.678;13.250;2023-11-19T11:13:20;10.60;1.00
7290;DHT22;63176;52.678;13.250;2023-11-19T11:15:48;10.60;1.00
7290;DHT22;63176;52.678;13.250;2023-11-19T11:18:14;10.70;1.00
7290;DHT22;63176;52.678;13.250;2023-11-19T11:20:41;10.70;1.00
7290;DHT22;63176;52.678;13.250;2023-11-19T11:26:34;10.90;1.00
7290;DHT22;63176;52.678;13.250;2023-11-19T11:29:37;11.00;1.00
7290;DHT22;63176;52.678;13.250;2023-11-19T11:37:38;11.20;1.00
7290;DHT22;63176;52.678;13.250;2023-11-19T11:40:05;11.20;1.00
7290;DHT22;63176;52.678;13.250;2023-11-19T11:42:36;11.20;1.00
7290;DHT22;63176;52.678;13.250;2023-11-19T11:45:12;11.20;1.00
7290;DHT22;63176;52.678;13.250;2023-11-19T11:50:09;11.20;1.00
7290;DHT22;63176;52.678;13.250;2023-11-19T11:58:18;11.20;1.00
7290;DHT22;63176;52.678;13.250;2023-11-19T12:00:43;11.20;1.00
7290;DHT22;63176;52.678;13.250;2023-11-19T12:03:13;11.20;1.00
7290;DHT22;63176;52.678;13.250;2023-11-19T12:05:44;11.20;1.00
7290;DHT22;63176;52.678;13.250;2023-11-19T12:08:11;11.30;1.00
7290;DHT22;63176;52.678;13.250;2023-11-19T12:10:51;11.30;1.00
7290;DHT22;63176;52.678;13.250;2023-11-19T12:13:18;11.30;1.00
7290;DHT22;63176;52.678;13.250;2023-11-19T12:18:29;11.20;1.00
7290;DHT22;63176;52.678;13.250;2023-11-19T12:20:56;11.20;1.00
7290;DHT22;63176;52.678;13.250;2023-11-19T12:23:22;11.20;1.00
7290;DHT22;63176;52.678;13.250;2023-11-19T12:25:48;11.20;1.00
7290;DHT22;63176;52.678;13.250;2023-11-19T12:28:14;11.20;1.00
7290;DHT22;63176;52.678;13.250;2023-11-19T12:30:42;11.20;1.00
7290;DHT22;63176;52.678;13.250;2023-11-19T12:33:09;11.20;1.00
7290;DHT22;63176;52.678;13.250;2023-11-19T12:35:40;11.20;1.00
7290;DHT22;63176;52.678;13.250;2023-11-19T12:38:06;11.20;1.00
7290;DHT22;63176;52.678;13.250;2023-11-19T12:40:32;11.20;1.00
7290;DHT22;63176;52.678;13.250;2023-11-19T12:42:57;11.20;1.00
7290;DHT22;63176;52.678;13.250;2023-11-19T12:45:24;11.20;1.00
7290;DHT22;63176;52.678;13.250;2023-11-19T12:47:50;11.30;1.00
7290;DHT22;63176;52.678;13.250;2023-11-19T12:50:29;11.30;1.00
7290;DHT22;63176;52.678;13.250;2023-11-19T12:52:58;11.30;1.00
7290;DHT22;63176;52.678;13.250;2023-11-19T12:55:28;11.30;1.00
7290;DHT22;63176;52.678;13.250;2023-11-19T12:57:53;11.40;1.00
7290;DHT22;63176;52.678;13.250;2023-11-19T13:00:25;11.30;1.00
7290;DHT22;63176;52.678;13.250;2023-11-19T13:02:53;11.40;1.00
7290;DHT22;63176;52.678;13.250;2023-11-19T13:05:29;11.40;1.00
7290;DHT22;63176;52.678;13.250;2023-11-19T13:08:04;11.30;1.00
7290;DHT22;63176;52.678;13.250;2023-11-19T13:10:34;11.30;1.00
7290;DHT22;63176;52.678;13.250;2023-11-19T13:13:15;11.30;1.00
7290;DHT22;63176;52.678;13.250;2023-11-19T13:15:41;11.30;1.00
7290;DHT22;63176;52.678;13.250;2023-11-19T13:18:06;11.30;1.00
7290;DHT22;63176;52.678;13.250;2023-11-19T13:20:32;11.40;1.00
7290;DHT22;63176;52.678;13.250;2023-11-19T13:23:00;11.40;1.00
7290;DHT22;63176;52.678;13.250;2023-11-19T13:25:29;11.50;1.00
7290;DHT22;63176;52.678;13.250;2023-11-19T13:27:56;11.40;1.00
7290;DHT22;63176;52.678;13.250;2023-11-19T13:30:25;11.50;1.00
7290;DHT22;63176;52.678;13.250;2023-11-19T13:32:52;11.50;1.00
7290;DHT22;63176;52.678;13.250;2023-11-19T13:35:20;11.50;1.00
7290;DHT22;63176;52.678;13.250;2023-11-19T13:37:46;11.50;1.00
7290;DHT22;63176;52.678;13.250;2023-11-19T13:40:12;11.40;1.00
7290;DHT22;63176;52.678;13.250;2023-11-19T13:42:41;11.40;1.00
7290;DHT22;63176;52.678;13.250;2023-11-19T13:45:12;11.40;1.00
7290;DHT22;63176;52.678;13.250;2023-11-19T13:47:39;11.40;1.00
7290;DHT22;63176;52.678;13.250;2023-11-19T13:50:10;11.40;1.00
7290;DHT22;63176;52.678;13.250;2023-11-19T13:52:40;11.40;1.00
7290;DHT22;63176;52.678;13.250;2023-11-19T13:55:08;11.40;1.00
7290;DHT22;63176;52.678;13.250;2023-11-19T13:57:41;11.30;1.00
7290;DHT22;63176;52.678;13.250;2023-11-19T14:00:08;11.30;1.00
7290;DHT22;63176;52.678;13.250;2023-11-19T14:02:45;11.30;1.00
7290;DHT22;63176;52.678;13.250;2023-11-19T14:05:12;11.30;1.00
7290;DHT22;63176;52.678;13.250;2023-11-19T14:07:39;11.30;1.00
7290;DHT22;63176;52.678;13.250;2023-11-19T14:10:05;11.30;1.00
7290;DHT22;63176;52.678;13.250;2023-11-19T14:12:32;11.20;1.00
7290;DHT22;63176;52.678;13.250;2023-11-19T14:14:58;11.30;1.00
7290;DHT22;63176;52.678;13.250;2023-11-19T14:17:25;11.20;1.00
7290;DHT22;63176;52.678;13.250;2023-11-19T14:19:51;11.20;1.00
7290;DHT22;63176;52.678;13.250;2023-11-19T14:22:17;11.20;1.00
7290;DHT22;63176;52.678;13.250;2023-11-19T14:24:42;11.10;1.00
7290;DHT22;63176;52.678;13.250;2023-11-19T14:27:11;11.10;1.00
7290;DHT22;63176;52.678;13.250;2023-11-19T14:29:37;11.10;1.00
7290;DHT22;63176;52.678;13.250;2023-11-19T14:32:03;11.10;1.00
7290;DHT22;63176;52.678;13.250;2023-11-19T14:34:30;11.00;1.00
7290;DHT22;63176;52.678;13.250;2023-11-19T14:36:56;11.00;1.00
7290;DHT22;63176;52.678;13.250;2023-11-19T14:39:22;11.00;1.00
7290;DHT22;63176;52.678;13.250;2023-11-19T14:41:48;11.00;1.00
7290;DHT22;63176;52.678;13.250;2023-11-19T14:44:15;11.00;1.00
7290;DHT22;63176;52.678;13.250;2023-11-19T14:46:41;11.00;1.00
7290;DHT22;63176;52.678;13.250;2023-11-19T14:49:07;11.00;1.00
7290;DHT22;63176;52.678;13.250;2023-11-19T14:51:36;11.00;1.00
7290;DHT22;63176;52.678;13.250;2023-11-19T14:54:03;11.00;1.00
7290;DHT22;63176;52.678;13.250;2023-11-19T14:56:29;11.00;1.00
7290;DHT22;63176;52.678;13.250;2023-11-19T14:58:55;11.00;1.00
7290;DHT22;63176;52.678;13.250;2023-11-19T15:01:20;11.00;1.00
7290;DHT22;63176;52.678;13.250;2023-11-19T15:03:46;10.90;1.00
7290;DHT22;63176;52.678;13.250;2023-11-19T15:06:12;10.90;1.00
7290;DHT22;63176;52.678;13.250;2023-11-19T15:08:37;10.90;1.00
7290;DHT22;63176;52.678;13.250;2023-11-19T15:11:03;10.90;1.00
7290;DHT22;63176;52.678;13.250;2023-11-19T15:13:31;10.90;1.00
7290;DHT22;63176;52.678;13.250;2023-11-19T15:15:58;10.90;1.00
7290;DHT22;63176;52.678;13.250;2023-11-19T15:18:24;11.00;1.00
7290;DHT22;63176;52.678;13.250;2023-11-19T15:20:50;10.90;1.00
7290;DHT22;63176;52.678;13.250;2023-11-19T15:23:15;10.90;1.00
7290;DHT22;63176;52.678;13.250;2023-11-19T15:25:44;10.90;1.00
7290;DHT22;63176;52.678;13.250;2023-11-19T15:28:10;10.90;1.00
7290;DHT22;63176;52.678;13.250;2023-11-19T15:30:36;10.90;1.00
7290;DHT22;63176;52.678;13.250;2023-11-19T15:33:01;10.90;1.00
7290;DHT22;63176;52.678;13.250;2023-11-19T15:35:27;10.90;1.00
7290;DHT22;63176;52.678;13.250;2023-11-19T15:37:53;10.90;1.00
7290;DHT22;63176;52.678;13.250;2023-11-19T15:40:19;10.90;1.00
7290;DHT22;63176;52.678;13.250;2023-11-19T15:42:45;10.80;1.00
7290;DHT22;63176;52.678;13.250;2023-11-19T15:45:12;10.90;1.00
7290;DHT22;63176;52.678;13.250;2023-11-19T15:47:38;10.80;1.00
7290;DHT22;63176;52.678;13.250;2023-11-19T15:50:04;10.90;1.00
7290;DHT22;63176;52.678;13.250;2023-11-19T15:52:30;10.80;1.00
7290;DHT22;63176;52.678;13.250;2023-11-19T15:54:57;10.90;1.00
7290;DHT22;63176;52.678;13.250;2023-11-19T15:57:23;10.80;1.00
7290;DHT22;63176;52.678;13.250;2023-11-19T15:59:49;10.80;1.00
7290;DHT22;63176;52.678;13.250;2023-11-19T16:02:14;10.80;1.00
7290;DHT22;63176;52.678;13.250;2023-11-19T16:04:41;10.70;1.00
7290;DHT22;63176;52.678;13.250;2023-11-19T16:07:06;10.70;1.00
7290;DHT22;63176;52.678;13.250;2023-11-19T16:09:32;10.70;1.00
7290;DHT22;63176;52.678;13.250;2023-11-19T16:11:58;10.70;1.00